sensor_id;sensor_type;location;lat;lon;timestamp;temperature;humidity
22430;DHT22;11382;48.086;11.632;2023-08-12T00:00:21;16.70;99.90
22430;DHT22;11382;48.086;11.632;2023-08-12T00:02:49;16.70;99.90
22430;DHT22;11382;48.086;11.632;2023-08-12T00:05:17;16.70;99.90
22430;DHT22;11382;48.086;11.632;2023-08-12T00:07:45;16.70;99.90
22430;DHT22;11382;48.086;11.632;2023-08-12T00:10:15;16.80;99.90
22430;DHT22;11382;48.086;11.632;2023-08-12T00:12:43;16.80;99.90
22430;DHT22;11382;48.086;11.632;2023-08-12T00:15:11;16.70;99.90
22430;DHT22;11382;48.086;11.632;2023-08-12T00:17:39;16.70;99.90
22430;DHT22;11382;48.086;11.632;2023-08-12T00:20:09;16.60;99.90
22430;DHT22;11382;48.086;11.632;2023-08-12T00:22:39;16.50;99.90
22430;DHT22;11382;48.086;11.632;2023-08-12T00:25:07;16.40;99.90
22430;DHT22;11382;48.086;11.632;2023-08-12T00:27:37;16.40;99.90
22430;DHT22;11382;48.086;11.632;2023-08-12T00:30:06;16.40;99.90
22430;DHT22;11382;48.086;11.632;2023-08-12T00:32:34;16.40;99.90
22430;DHT22;11382;48.086;11.632;2023-08-12T00:35:03;16.30;99.90
22430;DHT22;11382;48.086;11.632;2023-08-12T00:37:32;16.40;99.90
22430;DHT22;11382;48.086;11.632;2023-08-12T00:40:00;16.30;99.90
22430;DHT22;11382;48.086;11.632;2023-08-12T00:42:28;16.10;99.90
22430;DHT22;11382;48.086;11.632;2023-08-12T00:44:57;16.10;99.90
22430;DHT22;11382;48.086;11.632;2023-08-12T00:47:28;16.10;99.90
22430;DHT22;11382;48.086;11.632;2023-08-12T00:49:58;16.10;99.90
22430;DHT22;11382;48.086;11.632;2023-08-12T00:52:26;16.20;99.90
22430;DHT22;11382;48.086;11.632;2023-08-12T00:54:55;16.20;99.90
22430;DHT22;11382;48.086;11.632;2023-08-12T00:57:23;16.20;99.90
22430;DHT22;11382;48.086;11.632;2023-08-12T00:59:51;16.20;99.90
22430;DHT22;11382;48.086;11.632;2023-08-12T01:02:22;16.20;99.90
22430;DHT22;11382;48.086;11.632;2023-08-12T01:04:50;16.30;99.90
22430;DHT22;11382;48.086;11.632;2023-08-12T01:07:18;16.30;99.90
22430;DHT22;11382;48.086;11.632;2023-08-12T01:09:47;16.30;99.90
22430;DHT22;11382;48.086;11.632;2023-08-12T01:12:18;16.20;99.90
22430;DHT22;11382;48.086;11.632;2023-08-12T01:14:53;16.20;99.90
22430;DHT22;11382;48.086;11.632;2023-08-12T01:17:27;16.10;99.90
22430;DHT22;11382;48.086;11.632;2023-08-12T01:19:56;16.10;99.90
22430;DHT22;11382;48.086;11.632;2023-08-12T01:22:25;16.10;99.90
22430;DHT22;11382;48.086;11.632;2023-08-12T01:24:56;16.00;99.90
22430;DHT22;11382;48.086;11.632;2023-08-12T01:27:24;15.90;99.90
22430;DHT22;11382;48.086;11.632;2023-08-12T01:29:52;15.80;99.90
22430;DHT22;11382;48.086;11.632;2023-08-12T01:32:25;15.80;99.90
22430;DHT22;11382;48.086;11.632;2023-08-12T01:34:58;15.80;99.90
22430;DHT22;11382;48.086;11.632;2023-08-12T01:37:29;15.80;99.90
22430;DHT22;11382;48.086;11.632;2023-08-12T01:40:01;15.70;99.90
22430;DHT22;11382;48.086;11.632;2023-08-12T01:42:33;15.70;99.90
22430;DHT22;11382;48.086;11.632;2023-08-12T01:45:02;15.60;99.90
22430;DHT22;11382;48.086;11.632;2023-08-12T01:47:30;15.60;99.90
22430;DHT22;11382;48.086;11.632;2023-08-12T01:49:59;15.60;99.90
22430;DHT22;11382;48.086;11.632;2023-08-12T01:52:27;15.50;99.90
22430;DHT22;11382;48.086;11.632;2023-08-12T01:54:55;15.50;99.90
22430;DHT22;11382;48.086;11.632;2023-08-12T01:57:25;15.50;99.90
22430;DHT22;11382;48.086;11.632;2023-08-12T01:59:53;15.50;99.90
22430;DHT22;11382;48.086;11.632;2023-08-12T02:02:21;15.40;99.90
22430;DHT22;11382;48.086;11.632;2023-08-12T02:04:49;15.40;99.90
22430;DHT22;11382;48.086;11.632;2023-08-12T02:07:17;15.40;99.90
22430;DHT22;11382;48.086;11.632;2023-08-12T02:09:45;15.40;99.90
22430;DHT22;11382;48.086;11.632;2023-08-12T02:12:13;15.40;99.90
22430;DHT22;11382;48.086;11.632;2023-08-12T02:14:45;15.50;99.90
22430;DHT22;11382;48.086;11.632;2023-08-12T02:17:13;15.40;99.90
22430;DHT22;11382;48.086;11.632;2023-08-12T02:19:41;15.40;99.90
22430;DHT22;11382;48.086;11.632;2023-08-12T02:22:09;15.40;99.90
22430;DHT22;11382;48.086;11.632;2023-08-12T02:24:37;15.30;99.90
22430;DHT22;11382;48.086;11.632;2023-08-12T02:27:05;15.40;99.90
22430;DHT22;11382;48.086;11.632;2023-08-12T02:29:33;15.40;99.90
22430;DHT22;11382;48.086;11.632;2023-08-12T02:32:03;15.30;99.90
22430;DHT22;11382;48.086;11.632;2023-08-12T02:34:31;15.40;99.90
22430;DHT22;11382;48.086;11.632;2023-08-12T02:36:59;15.40;99.90
22430;DHT22;11382;48.086;11.632;2023-08-12T02:39:29;15.50;99.90
22430;DHT22;11382;48.086;11.632;2023-08-12T02:41:57;15.50;99.90
22430;DHT22;11382;48.086;11.632;2023-08-12T02:44:26;15.50;99.90
22430;DHT22;11382;48.086;11.632;2023-08-12T02:46:54;15.50;99.90
22430;DHT22;11382;48.086;11.632;2023-08-12T02:49:24;15.50;99.90
22430;DHT22;11382;48.086;11.632;2023-08-12T02:51:52;15.30;99.90
22430;DHT22;11382;48.086;11.632;2023-08-12T02:54:20;15.30;99.90
22430;DHT22;11382;48.086;11.632;2023-08-12T02:56:49;15.30;99.90
22430;DHT22;11382;48.086;11.632;2023-08-12T02:59:17;15.30;99.90
22430;DHT22;11382;48.086;11.632;2023-08-12T03:01:45;15.30;99.90
22430;DHT22;11382;48.086;11.632;2023-08-12T03:04:13;15.20;99.90
22430;DHT22;11382;48.086;11.632;2023-08-12T03:06:43;15.20;99.90
22430;DHT22;11382;48.086;11.632;2023-08-12T03:09:11;15.20;99.90
22430;DHT22;11382;48.086;11.632;2023-08-12T03:11:43;15.20;99.90
22430;DHT22;11382;48.086;11.632;2023-08-12T03:14:12;15.10;99.90
22430;DHT22;11382;48.086;11.632;2023-08-12T03:16:40;15.00;99.90
22430;DHT22;11382;48.086;11.632;2023-08-12T03:19:08;15.00;99.90
22430;DHT22;11382;48.086;11.632;2023-08-12T03:21:36;15.00;99.90
22430;DHT22;11382;48.086;11.632;2023-08-12T03:24:06;14.80;99.90
22430;DHT22;11382;48.086;11.632;2023-08-12T03:26:35;14.80;99.90
22430;DHT22;11382;48.086;11.632;2023-08-12T03:29:03;14.90;99.90
22430;DHT22;11382;48.086;11.632;2023-08-12T03:31:34;14.80;99.90
22430;DHT22;11382;48.086;11.632;2023-08-12T03:34:02;14.70;99.90
22430;DHT22;11382;48.086;11.632;2023-08-12T03:36:31;14.70;99.90
22430;DHT22;11382;48.086;11.632;2023-08-12T03:38:59;14.70;99.90
22430;DHT22;11382;48.086;11.632;2023-08-12T03:41:31;14.70;99.90
22430;DHT22;11382;48.086;11.632;2023-08-12T03:44:04;14.80;99.90
22430;DHT22;11382;48.086;11.632;2023-08-12T03:46:33;14.80;99.90
22430;DHT22;11382;48.086;11.632;2023-08-12T03:49:01;14.90;99.90
22430;DHT22;11382;48.086;11.632;2023-08-12T03:51:30;14.90;99.90
22430;DHT22;11382;48.086;11.632;2023-08-12T03:53:58;14.80;99.90
22430;DHT22;11382;48.086;11.632;2023-08-12T03:56:27;14.70;99.90
22430;DHT22;11382;48.086;11.632;2023-08-12T03:58:56;14.70;99.90
22430;DHT22;11382;48.086;11.632;2023-08-12T04:01:24;14.60;99.90
22430;DHT22;11382;48.086;11.632;2023-08-12T04:03:53;14.60;99.90
22430;DHT22;11382;48.086;11.632;2023-08-12T04:06:21;14.70;99.90
22430;DHT22;11382;48.086;11.632;2023-08-12T04:08:49;14.80;99.90
22430;DHT22;11382;48.086;11.632;2023-08-12T04:11:18;14.80;99.90
22430;DHT22;11382;48.086;11.632;2023-08-12T04:13:46;14.90;99.90
22430;DHT22;11382;48.086;11.632;2023-08-12T04:16:15;14.90;99.90
22430;DHT22;11382;48.086;11.632;2023-08-12T04:18:43;15.00;99.90
22430;DHT22;11382;48.086;11.632;2023-08-12T04:21:11;15.10;99.90
22430;DHT22;11382;48.086;11.632;2023-08-12T04:23:39;15.20;99.90
22430;DHT22;11382;48.086;11.632;2023-08-12T04:26:07;15.10;99.90
22430;DHT22;11382;48.086;11.632;2023-08-12T04:28:35;15.10;99.90
22430;DHT22;11382;48.086;11.632;2023-08-12T04:31:06;15.20;99.90
22430;DHT22;11382;48.086;11.632;2023-08-12T04:33:38;15.20;99.90
22430;DHT22;11382;48.086;11.632;2023-08-12T04:36:06;15.30;99.90
22430;DHT22;11382;48.086;11.632;2023-08-12T04:38:34;15.40;99.90
22430;DHT22;11382;48.086;11.632;2023-08-12T04:41:06;15.50;99.90
22430;DHT22;11382;48.086;11.632;2023-08-12T04:43:36;15.40;99.90
22430;DHT22;11382;48.086;11.632;2023-08-12T04:46:04;15.30;99.90
22430;DHT22;11382;48.086;11.632;2023-08-12T04:48:33;15.50;99.90
22430;DHT22;11382;48.086;11.632;2023-08-12T04:51:03;15.80;99.90
22430;DHT22;11382;48.086;11.632;2023-08-12T04:53:33;16.20;99.90
22430;DHT22;11382;48.086;11.632;2023-08-12T04:56:01;16.50;99.90
22430;DHT22;11382;48.086;11.632;2023-08-12T04:58:30;16.70;99.90
22430;DHT22;11382;48.086;11.632;2023-08-12T05:01:00;17.10;99.90
22430;DHT22;11382;48.086;11.632;2023-08-12T05:03:29;18.00;99.90
22430;DHT22;11382;48.086;11.632;2023-08-12T05:05:59;18.80;99.90
22430;DHT22;11382;48.086;11.632;2023-08-12T05:08:28;19.60;99.90
22430;DHT22;11382;48.086;11.632;2023-08-12T05:10:56;20.30;99.90
22430;DHT22;11382;48.086;11.632;2023-08-12T05:13:24;21.00;99.90
22430;DHT22;11382;48.086;11.632;2023-08-12T05:15:52;21.60;99.90
22430;DHT22;11382;48.086;11.632;2023-08-12T05:18:21;22.10;99.90
22430;DHT22;11382;48.086;11.632;2023-08-12T05:20:51;22.40;99.90
22430;DHT22;11382;48.086;11.632;2023-08-12T05:23:20;22.70;99.90
22430;DHT22;11382;48.086;11.632;2023-08-12T05:25:49;22.90;99.90
22430;DHT22;11382;48.086;11.632;2023-08-12T05:28:21;23.30;99.90
22430;DHT22;11382;48.086;11.632;2023-08-12T05:30:49;23.50;99.90
22430;DHT22;11382;48.086;11.632;2023-08-12T05:33:17;23.50;99.90
22430;DHT22;11382;48.086;11.632;2023-08-12T05:35:47;23.20;99.90
22430;DHT22;11382;48.086;11.632;2023-08-12T05:38:15;23.30;99.90
22430;DHT22;11382;48.086;11.632;2023-08-12T05:40:43;23.30;99.90
22430;DHT22;11382;48.086;11.632;2023-08-12T05:43:12;23.30;99.90
22430;DHT22;11382;48.086;11.632;2023-08-12T05:45:41;23.90;99.90
22430;DHT22;11382;48.086;11.632;2023-08-12T05:48:09;24.40;99.90
22430;DHT22;11382;48.086;11.632;2023-08-12T05:50:37;24.90;99.90
22430;DHT22;11382;48.086;11.632;2023-08-12T05:53:05;25.90;99.90
22430;DHT22;11382;48.086;11.632;2023-08-12T05:55:34;26.60;99.90
22430;DHT22;11382;48.086;11.632;2023-08-12T05:58:03;27.10;99.90
22430;DHT22;11382;48.086;11.632;2023-08-12T06:00:32;28.20;99.90
22430;DHT22;11382;48.086;11.632;2023-08-12T06:03:00;29.00;99.90
22430;DHT22;11382;48.086;11.632;2023-08-12T06:05:28;29.90;99.20
22430;DHT22;11382;48.086;11.632;2023-08-12T06:07:56;30.30;96.80
22430;DHT22;11382;48.086;11.632;2023-08-12T06:10:24;30.90;95.50
22430;DHT22;11382;48.086;11.632;2023-08-12T06:12:52;31.40;94.30
22430;DHT22;11382;48.086;11.632;2023-08-12T06:15:20;31.80;94.00
22430;DHT22;11382;48.086;11.632;2023-08-12T06:17:50;32.70;92.30
22430;DHT22;11382;48.086;11.632;2023-08-12T06:20:18;33.10;90.80
22430;DHT22;11382;48.086;11.632;2023-08-12T06:22:46;33.90;87.10
22430;DHT22;11382;48.086;11.632;2023-08-12T06:25:14;34.40;86.10
22430;DHT22;11382;48.086;11.632;2023-08-12T06:27:42;35.10;81.00
22430;DHT22;11382;48.086;11.632;2023-08-12T06:30:11;34.70;82.10
22430;DHT22;11382;48.086;11.632;2023-08-12T06:32:40;35.00;77.10
22430;DHT22;11382;48.086;11.632;2023-08-12T06:35:09;34.60;76.90
22430;DHT22;11382;48.086;11.632;2023-08-12T06:37:37;34.90;77.40
22430;DHT22;11382;48.086;11.632;2023-08-12T06:40:06;34.80;76.40
22430;DHT22;11382;48.086;11.632;2023-08-12T06:42:34;35.50;74.10
22430;DHT22;11382;48.086;11.632;2023-08-12T06:45:04;35.90;72.50
22430;DHT22;11382;48.086;11.632;2023-08-12T06:47:33;35.40;71.90
22430;DHT22;11382;48.086;11.632;2023-08-12T06:50:01;35.80;72.10
22430;DHT22;11382;48.086;11.632;2023-08-12T06:52:30;35.50;71.70
22430;DHT22;11382;48.086;11.632;2023-08-12T06:54:58;34.30;73.10
22430;DHT22;11382;48.086;11.632;2023-08-12T06:57:26;34.00;72.90
22430;DHT22;11382;48.086;11.632;2023-08-12T06:59:54;34.70;74.00
22430;DHT22;11382;48.086;11.632;2023-08-12T07:02:22;35.50;73.10
22430;DHT22;11382;48.086;11.632;2023-08-12T07:04:50;35.70;71.40
22430;DHT22;11382;48.086;11.632;2023-08-12T07:07:19;36.30;72.10
22430;DHT22;11382;48.086;11.632;2023-08-12T07:09:48;36.80;69.00
22430;DHT22;11382;48.086;11.632;2023-08-12T07:12:16;38.00;67.70
22430;DHT22;11382;48.086;11.632;2023-08-12T07:14:44;38.90;63.90
22430;DHT22;11382;48.086;11.632;2023-08-12T07:17:12;38.70;63.10
22430;DHT22;11382;48.086;11.632;2023-08-12T07:19:41;39.20;62.50
22430;DHT22;11382;48.086;11.632;2023-08-12T07:22:09;38.80;60.80
22430;DHT22;11382;48.086;11.632;2023-08-12T07:24:38;40.00;60.10
22430;DHT22;11382;48.086;11.632;2023-08-12T07:27:07;40.30;58.30
22430;DHT22;11382;48.086;11.632;2023-08-12T07:29:35;38.30;59.70
22430;DHT22;11382;48.086;11.632;2023-08-12T07:32:04;39.20;60.20
22430;DHT22;11382;48.086;11.632;2023-08-12T07:34:32;39.60;59.70
22430;DHT22;11382;48.086;11.632;2023-08-12T07:37:00;40.70;58.10
22430;DHT22;11382;48.086;11.632;2023-08-12T07:39:28;40.40;57.40
22430;DHT22;11382;48.086;11.632;2023-08-12T07:41:56;39.50;59.20
22430;DHT22;11382;48.086;11.632;2023-08-12T07:44:25;39.70;57.80
22430;DHT22;11382;48.086;11.632;2023-08-12T07:46:53;41.40;56.40
22430;DHT22;11382;48.086;11.632;2023-08-12T07:49:21;42.10;55.00
22430;DHT22;11382;48.086;11.632;2023-08-12T07:51:50;41.80;54.10
22430;DHT22;11382;48.086;11.632;2023-08-12T07:54:18;41.50;52.90
22430;DHT22;11382;48.086;11.632;2023-08-12T07:56:46;41.50;54.60
22430;DHT22;11382;48.086;11.632;2023-08-12T07:59:14;40.50;54.90
22430;DHT22;11382;48.086;11.632;2023-08-12T08:01:44;39.50;56.30
22430;DHT22;11382;48.086;11.632;2023-08-12T08:04:12;39.30;56.10
22430;DHT22;11382;48.086;11.632;2023-08-12T08:06:40;39.50;57.00
22430;DHT22;11382;48.086;11.632;2023-08-12T08:09:08;40.40;54.80
22430;DHT22;11382;48.086;11.632;2023-08-12T08:11:36;40.00;55.30
22430;DHT22;11382;48.086;11.632;2023-08-12T08:14:04;40.60;53.40
22430;DHT22;11382;48.086;11.632;2023-08-12T08:16:32;40.70;53.70
22430;DHT22;11382;48.086;11.632;2023-08-12T08:19:02;39.40;54.10
22430;DHT22;11382;48.086;11.632;2023-08-12T08:21:30;38.00;56.40
22430;DHT22;11382;48.086;11.632;2023-08-12T08:23:58;38.50;58.10
22430;DHT22;11382;48.086;11.632;2023-08-12T08:26:26;38.70;56.40
22430;DHT22;11382;48.086;11.632;2023-08-12T08:28:54;38.60;55.40
22430;DHT22;11382;48.086;11.632;2023-08-12T08:31:22;38.00;56.40
22430;DHT22;11382;48.086;11.632;2023-08-12T08:33:50;37.60;57.70
22430;DHT22;11382;48.086;11.632;2023-08-12T08:36:20;38.20;56.50
22430;DHT22;11382;48.086;11.632;2023-08-12T08:38:48;38.70;57.30
22430;DHT22;11382;48.086;11.632;2023-08-12T08:41:16;41.50;53.80
22430;DHT22;11382;48.086;11.632;2023-08-12T08:43:47;41.00;52.20
22430;DHT22;11382;48.086;11.632;2023-08-12T08:46:16;39.80;55.30
22430;DHT22;11382;48.086;11.632;2023-08-12T08:48:45;40.20;54.10
22430;DHT22;11382;48.086;11.632;2023-08-12T08:51:15;42.20;53.00
22430;DHT22;11382;48.086;11.632;2023-08-12T08:53:45;42.10;51.40
22430;DHT22;11382;48.086;11.632;2023-08-12T08:56:13;40.30;53.20
22430;DHT22;11382;48.086;11.632;2023-08-12T08:58:42;38.50;56.40
22430;DHT22;11382;48.086;11.632;2023-08-12T09:01:10;37.30;58.20
22430;DHT22;11382;48.086;11.632;2023-08-12T09:03:39;38.10;58.00
22430;DHT22;11382;48.086;11.632;2023-08-12T09:06:07;39.50;55.50
22430;DHT22;11382;48.086;11.632;2023-08-12T09:08:36;38.80;57.00
22430;DHT22;11382;48.086;11.632;2023-08-12T09:11:07;39.00;57.70
22430;DHT22;11382;48.086;11.632;2023-08-12T09:13:35;39.60;56.00
22430;DHT22;11382;48.086;11.632;2023-08-12T09:16:03;38.40;57.70
22430;DHT22;11382;48.086;11.632;2023-08-12T09:18:32;38.40;58.20
22430;DHT22;11382;48.086;11.632;2023-08-12T09:21:00;37.50;61.50
22430;DHT22;11382;48.086;11.632;2023-08-12T09:23:28;36.80;61.60
22430;DHT22;11382;48.086;11.632;2023-08-12T09:26:01;36.10;63.20
22430;DHT22;11382;48.086;11.632;2023-08-12T09:28:31;35.30;62.80
22430;DHT22;11382;48.086;11.632;2023-08-12T09:30:59;34.70;65.80
22430;DHT22;11382;48.086;11.632;2023-08-12T09:33:27;34.40;65.80
22430;DHT22;11382;48.086;11.632;2023-08-12T09:35:55;35.30;68.00
22430;DHT22;11382;48.086;11.632;2023-08-12T09:38:24;35.80;63.10
22430;DHT22;11382;48.086;11.632;2023-08-12T09:40:53;36.90;61.60
22430;DHT22;11382;48.086;11.632;2023-08-12T09:43:24;38.10;58.70
22430;DHT22;11382;48.086;11.632;2023-08-12T09:45:56;38.90;55.80
22430;DHT22;11382;48.086;11.632;2023-08-12T09:48:25;41.50;53.50
22430;DHT22;11382;48.086;11.632;2023-08-12T09:50:53;43.90;51.40
22430;DHT22;11382;48.086;11.632;2023-08-12T09:53:22;44.30;48.60
22430;DHT22;11382;48.086;11.632;2023-08-12T09:55:52;45.30;48.90
22430;DHT22;11382;48.086;11.632;2023-08-12T09:58:23;43.50;50.20
22430;DHT22;11382;48.086;11.632;2023-08-12T10:00:53;41.70;51.50
22430;DHT22;11382;48.086;11.632;2023-08-12T10:03:23;40.40;53.50
22430;DHT22;11382;48.086;11.632;2023-08-12T10:05:52;39.10;54.90
22430;DHT22;11382;48.086;11.632;2023-08-12T10:08:20;38.30;56.00
22430;DHT22;11382;48.086;11.632;2023-08-12T10:10:48;37.30;58.40
22430;DHT22;11382;48.086;11.632;2023-08-12T10:13:36;36.40;59.80
22430;DHT22;11382;48.086;11.632;2023-08-12T10:16:06;36.20;61.10
22430;DHT22;11382;48.086;11.632;2023-08-12T10:18:36;35.80;59.80
22430;DHT22;11382;48.086;11.632;2023-08-12T10:21:04;37.20;58.50
22430;DHT22;11382;48.086;11.632;2023-08-12T10:23:34;37.50;60.00
22430;DHT22;11382;48.086;11.632;2023-08-12T10:26:05;38.40;58.20
22430;DHT22;11382;48.086;11.632;2023-08-12T10:28:33;39.30;56.40
22430;DHT22;11382;48.086;11.632;2023-08-12T10:31:06;39.60;54.60
22430;DHT22;11382;48.086;11.632;2023-08-12T10:33:37;40.00;55.00
22430;DHT22;11382;48.086;11.632;2023-08-12T10:36:06;40.70;53.30
22430;DHT22;11382;48.086;11.632;2023-08-12T10:38:34;39.50;55.10
22430;DHT22;11382;48.086;11.632;2023-08-12T10:41:16;39.90;55.60
22430;DHT22;11382;48.086;11.632;2023-08-12T10:43:55;39.30;55.60
22430;DHT22;11382;48.086;11.632;2023-08-12T10:46:29;38.00;55.80
22430;DHT22;11382;48.086;11.632;2023-08-12T10:49:04;38.20;57.00
22430;DHT22;11382;48.086;11.632;2023-08-12T10:51:44;40.60;53.10
22430;DHT22;11382;48.086;11.632;2023-08-12T10:54:17;41.50;52.80
22430;DHT22;11382;48.086;11.632;2023-08-12T10:57:05;42.80;51.50
22430;DHT22;11382;48.086;11.632;2023-08-12T10:59:54;43.30;51.10
22430;DHT22;11382;48.086;11.632;2023-08-12T11:02:27;41.10;50.60
22430;DHT22;11382;48.086;11.632;2023-08-12T11:04:57;41.00;52.40
22430;DHT22;11382;48.086;11.632;2023-08-12T11:07:33;40.80;52.20
22430;DHT22;11382;48.086;11.632;2023-08-12T11:10:09;39.90;52.30
22430;DHT22;11382;48.086;11.632;2023-08-12T11:12:38;40.60;53.10
22430;DHT22;11382;48.086;11.632;2023-08-12T11:15:07;41.60;51.60
22430;DHT22;11382;48.086;11.632;2023-08-12T11:17:39;42.20;51.10
22430;DHT22;11382;48.086;11.632;2023-08-12T11:20:09;41.20;51.10
22430;DHT22;11382;48.086;11.632;2023-08-12T11:22:38;40.80;52.30
22430;DHT22;11382;48.086;11.632;2023-08-12T11:25:07;41.80;52.50
22430;DHT22;11382;48.086;11.632;2023-08-12T11:27:40;42.40;50.60
22430;DHT22;11382;48.086;11.632;2023-08-12T11:30:15;42.80;50.00
22430;DHT22;11382;48.086;11.632;2023-08-12T11:32:46;43.10;51.00
22430;DHT22;11382;48.086;11.632;2023-08-12T11:35:15;43.30;49.70
22430;DHT22;11382;48.086;11.632;2023-08-12T11:37:44;43.40;49.60
22430;DHT22;11382;48.086;11.632;2023-08-12T11:40:14;43.20;48.70
22430;DHT22;11382;48.086;11.632;2023-08-12T11:42:44;43.00;48.30
22430;DHT22;11382;48.086;11.632;2023-08-12T11:45:14;42.90;48.00
22430;DHT22;11382;48.086;11.632;2023-08-12T11:47:44;42.80;48.20
22430;DHT22;11382;48.086;11.632;2023-08-12T11:50:14;42.80;47.80
22430;DHT22;11382;48.086;11.632;2023-08-12T11:52:42;42.70;48.00
22430;DHT22;11382;48.086;11.632;2023-08-12T11:55:10;43.10;46.80
22430;DHT22;11382;48.086;11.632;2023-08-12T11:57:39;43.30;47.50
22430;DHT22;11382;48.086;11.632;2023-08-12T12:00:09;43.10;46.40
22430;DHT22;11382;48.086;11.632;2023-08-12T12:02:47;42.30;46.60
22430;DHT22;11382;48.086;11.632;2023-08-12T12:05:16;40.30;47.30
22430;DHT22;11382;48.086;11.632;2023-08-12T12:07:49;38.50;51.90
22430;DHT22;11382;48.086;11.632;2023-08-12T12:10:19;36.90;55.10
22430;DHT22;11382;48.086;11.632;2023-08-12T12:12:48;35.40;56.40
22430;DHT22;11382;48.086;11.632;2023-08-12T12:15:16;34.90;58.30
22430;DHT22;11382;48.086;11.632;2023-08-12T12:17:47;34.60;59.60
22430;DHT22;11382;48.086;11.632;2023-08-12T12:20:15;34.10;59.60
22430;DHT22;11382;48.086;11.632;2023-08-12T12:22:44;33.70;62.30
22430;DHT22;11382;48.086;11.632;2023-08-12T12:25:13;33.40;60.90
22430;DHT22;11382;48.086;11.632;2023-08-12T12:27:44;33.10;61.70
22430;DHT22;11382;48.086;11.632;2023-08-12T12:30:14;33.00;63.10
22430;DHT22;11382;48.086;11.632;2023-08-12T12:32:42;33.00;59.90
22430;DHT22;11382;48.086;11.632;2023-08-12T12:35:13;33.00;61.80
22430;DHT22;11382;48.086;11.632;2023-08-12T12:37:41;33.00;59.40
22430;DHT22;11382;48.086;11.632;2023-08-12T12:40:10;33.00;60.30
22430;DHT22;11382;48.086;11.632;2023-08-12T12:42:39;32.90;60.20
22430;DHT22;11382;48.086;11.632;2023-08-12T12:45:08;32.70;60.00
22430;DHT22;11382;48.086;11.632;2023-08-12T12:47:36;32.70;63.40
22430;DHT22;11382;48.086;11.632;2023-08-12T12:50:06;32.90;63.00
22430;DHT22;11382;48.086;11.632;2023-08-12T12:52:36;32.50;63.00
22430;DHT22;11382;48.086;11.632;2023-08-12T12:55:04;32.30;64.70
22430;DHT22;11382;48.086;11.632;2023-08-12T12:57:32;32.30;66.80
22430;DHT22;11382;48.086;11.632;2023-08-12T13:00:01;32.30;65.70
22430;DHT22;11382;48.086;11.632;2023-08-12T13:02:30;32.30;67.30
22430;DHT22;11382;48.086;11.632;2023-08-12T13:04:59;32.30;63.20
22430;DHT22;11382;48.086;11.632;2023-08-12T13:07:26;32.30;64.20
22430;DHT22;11382;48.086;11.632;2023-08-12T13:09:56;32.40;64.60
22430;DHT22;11382;48.086;11.632;2023-08-12T13:12:24;32.30;66.90
22430;DHT22;11382;48.086;11.632;2023-08-12T13:14:52;32.20;64.80
22430;DHT22;11382;48.086;11.632;2023-08-12T13:17:20;32.10;64.90
22430;DHT22;11382;48.086;11.632;2023-08-12T13:19:48;32.10;62.60
22430;DHT22;11382;48.086;11.632;2023-08-12T13:22:16;32.10;65.30
22430;DHT22;11382;48.086;11.632;2023-08-12T13:24:44;32.20;66.50
22430;DHT22;11382;48.086;11.632;2023-08-12T13:27:13;32.00;65.10
22430;DHT22;11382;48.086;11.632;2023-08-12T13:29:41;31.90;65.20
22430;DHT22;11382;48.086;11.632;2023-08-12T13:32:09;32.30;65.90
22430;DHT22;11382;48.086;11.632;2023-08-12T13:34:38;32.60;65.10
22430;DHT22;11382;48.086;11.632;2023-08-12T13:37:06;33.00;66.90
22430;DHT22;11382;48.086;11.632;2023-08-12T13:39:34;33.30;64.70
22430;DHT22;11382;48.086;11.632;2023-08-12T13:42:02;33.50;64.60
22430;DHT22;11382;48.086;11.632;2023-08-12T13:44:31;33.90;65.80
22430;DHT22;11382;48.086;11.632;2023-08-12T13:46:59;34.30;64.90
22430;DHT22;11382;48.086;11.632;2023-08-12T13:49:27;34.70;62.20
22430;DHT22;11382;48.086;11.632;2023-08-12T13:51:55;34.90;63.10
22430;DHT22;11382;48.086;11.632;2023-08-12T13:54:23;34.10;61.90
22430;DHT22;11382;48.086;11.632;2023-08-12T13:56:51;33.80;63.50
22430;DHT22;11382;48.086;11.632;2023-08-12T13:59:20;33.70;63.40
22430;DHT22;11382;48.086;11.632;2023-08-12T14:01:49;34.10;64.10
22430;DHT22;11382;48.086;11.632;2023-08-12T14:04:17;34.10;62.50
22430;DHT22;11382;48.086;11.632;2023-08-12T14:06:46;33.80;64.60
22430;DHT22;11382;48.086;11.632;2023-08-12T14:09:16;33.90;64.90
22430;DHT22;11382;48.086;11.632;2023-08-12T14:11:45;33.70;64.40
22430;DHT22;11382;48.086;11.632;2023-08-12T14:14:13;33.60;62.30
22430;DHT22;11382;48.086;11.632;2023-08-12T14:16:41;33.70;64.00
22430;DHT22;11382;48.086;11.632;2023-08-12T14:19:10;33.50;65.10
22430;DHT22;11382;48.086;11.632;2023-08-12T14:21:40;33.40;65.60
22430;DHT22;11382;48.086;11.632;2023-08-12T14:24:08;33.30;64.90
22430;DHT22;11382;48.086;11.632;2023-08-12T14:26:36;33.00;64.20
22430;DHT22;11382;48.086;11.632;2023-08-12T14:29:05;32.90;65.20
22430;DHT22;11382;48.086;11.632;2023-08-12T14:31:33;32.80;66.30
22430;DHT22;11382;48.086;11.632;2023-08-12T14:34:01;33.10;67.70
22430;DHT22;11382;48.086;11.632;2023-08-12T14:36:31;33.20;67.40
22430;DHT22;11382;48.086;11.632;2023-08-12T14:38:59;32.80;65.00
22430;DHT22;11382;48.086;11.632;2023-08-12T14:41:27;32.50;67.00
22430;DHT22;11382;48.086;11.632;2023-08-12T14:43:55;32.50;66.60
22430;DHT22;11382;48.086;11.632;2023-08-12T14:46:23;32.70;69.00
22430;DHT22;11382;48.086;11.632;2023-08-12T14:48:51;33.00;69.40
22430;DHT22;11382;48.086;11.632;2023-08-12T14:51:20;32.90;66.60
22430;DHT22;11382;48.086;11.632;2023-08-12T14:53:49;32.60;66.70
22430;DHT22;11382;48.086;11.632;2023-08-12T14:56:17;32.00;67.10
22430;DHT22;11382;48.086;11.632;2023-08-12T14:58:45;31.60;69.10
22430;DHT22;11382;48.086;11.632;2023-08-12T15:01:13;31.40;70.60
22430;DHT22;11382;48.086;11.632;2023-08-12T15:03:42;31.20;68.50
22430;DHT22;11382;48.086;11.632;2023-08-12T15:06:10;31.00;70.50
22430;DHT22;11382;48.086;11.632;2023-08-12T15:08:40;30.90;70.30
22430;DHT22;11382;48.086;11.632;2023-08-12T15:11:09;30.60;70.90
22430;DHT22;11382;48.086;11.632;2023-08-12T15:13:37;30.40;72.50
22430;DHT22;11382;48.086;11.632;2023-08-12T15:16:05;30.30;73.00
22430;DHT22;11382;48.086;11.632;2023-08-12T15:18:33;30.20;72.90
22430;DHT22;11382;48.086;11.632;2023-08-12T15:21:01;30.30;72.50
22430;DHT22;11382;48.086;11.632;2023-08-12T15:23:30;30.20;71.10
22430;DHT22;11382;48.086;11.632;2023-08-12T15:25:59;30.20;71.10